sensor_id;sensor_type;location;lat;lon;timestamp;P1;durP1;ratioP1;P2;durP2;ratioP2
18544;SDS011;9402;51.460;7.276;2023-07-02T00:00:59;7.03;;;3.20;;
18544;SDS011;9402;51.460;7.276;2023-07-02T00:03:01;2.50;;;2.30;;
18544;SDS011;9402;51.460;7.276;2023-07-02T00:05:04;5.87;;;3.60;;
18544;SDS011;9402;51.460;7.276;2023-07-02T00:07:06;5.07;;;3.20;;
18544;SDS011;9402;51.460;7.276;2023-07-02T00:09:07;6.00;;;3.03;;
18544;SDS011;9402;51.460;7.276;2023-07-02T00:11:09;5.00;;;3.13;;
18544;SDS011;9402;51.460;7.276;2023-07-02T00:13:12;11.27;;;3.40;;
18544;SDS011;9402;51.460;7.276;2023-07-02T00:15:15;7.97;;;3.97;;
18544;SDS011;9402;51.460;7.276;2023-07-02T00:17:17;5.07;;;3.57;;
18544;SDS011;9402;51.460;7.276;2023-07-02T00:19:18;5.83;;;3.20;;
18544;SDS011;9402;51.460;7.276;2023-07-02T00:21:20;5.60;;;2.97;;
18544;SDS011;9402;51.460;7.276;2023-07-02T00:23:21;5.03;;;3.50;;
18544;SDS011;9402;51.460;7.276;2023-07-02T00:25:23;5.97;;;3.13;;
18544;SDS011;9402;51.460;7.276;2023-07-02T00:27:24;4.50;;;3.37;;
18544;SDS011;9402;51.460;7.276;2023-07-02T00:29:26;5.00;;;3.13;;
18544;SDS011;9402;51.460;7.276;2023-07-02T00:31:29;6.90;;;3.40;;
18544;SDS011;9402;51.460;7.276;2023-07-02T00:33:31;9.37;;;3.60;;
18544;SDS011;9402;51.460;7.276;2023-07-02T00:35:33;13.53;;;3.67;;
18544;SDS011;9402;51.460;7.276;2023-07-02T00:37:34;8.63;;;3.60;;
18544;SDS011;9402;51.460;7.276;2023-07-02T00:39:36;10.33;;;4.20;;
18544;SDS011;9402;51.460;7.276;2023-07-02T00:41:37;6.40;;;3.37;;
18544;SDS011;9402;51.460;7.276;2023-07-02T00:43:39;6.03;;;3.20;;
18544;SDS011;9402;51.460;7.276;2023-07-02T00:45:44;7.00;;;4.00;;
18544;SDS011;9402;51.460;7.276;2023-07-02T00:47:47;7.70;;;3.63;;
18544;SDS011;9402;51.460;7.276;2023-07-02T00:49:48;6.80;;;3.47;;
18544;SDS011;9402;51.460;7.276;2023-07-02T00:51:50;6.17;;;3.63;;
18544;SDS011;9402;51.460;7.276;2023-07-02T00:53:52;10.33;;;4.50;;
18544;SDS011;9402;51.460;7.276;2023-07-02T00:55:55;5.93;;;3.67;;
18544;SDS011;9402;51.460;7.276;2023-07-02T00:57:57;8.50;;;3.83;;
18544;SDS011;9402;51.460;7.276;2023-07-02T00:59:58;7.07;;;3.77;;
18544;SDS011;9402;51.460;7.276;2023-07-02T01:02:00;7.40;;;3.90;;
18544;SDS011;9402;51.460;7.276;2023-07-02T01:04:04;8.13;;;3.70;;
18544;SDS011;9402;51.460;7.276;2023-07-02T01:06:07;5.67;;;4.33;;
18544;SDS011;9402;51.460;7.276;2023-07-02T01:08:09;13.20;;;4.23;;
18544;SDS011;9402;51.460;7.276;2023-07-02T01:10:12;9.43;;;4.13;;
18544;SDS011;9402;51.460;7.276;2023-07-02T01:12:13;9.10;;;4.20;;
18544;SDS011;9402;51.460;7.276;2023-07-02T01:14:19;12.27;;;4.13;;
18544;SDS011;9402;51.460;7.276;2023-07-02T01:16:23;8.90;;;4.60;;
18544;SDS011;9402;51.460;7.276;2023-07-02T01:18:24;8.30;;;3.77;;
18544;SDS011;9402;51.460;7.276;2023-07-02T01:20:27;12.30;;;4.17;;
18544;SDS011;9402;51.460;7.276;2023-07-02T01:22:30;7.37;;;3.90;;
18544;SDS011;9402;51.460;7.276;2023-07-02T01:24:33;11.33;;;4.63;;
18544;SDS011;9402;51.460;7.276;2023-07-02T01:26:35;9.73;;;4.87;;
18544;SDS011;9402;51.460;7.276;2023-07-02T01:28:37;10.33;;;5.07;;
18544;SDS011;9402;51.460;7.276;2023-07-02T01:30:38;9.60;;;5.47;;
18544;SDS011;9402;51.460;7.276;2023-07-02T01:32:40;7.03;;;4.60;;
18544;SDS011;9402;51.460;7.276;2023-07-02T01:34:41;11.50;;;4.67;;
18544;SDS011;9402;51.460;7.276;2023-07-02T01:36:45;12.70;;;4.77;;
18544;SDS011;9402;51.460;7.276;2023-07-02T01:38:46;11.27;;;5.17;;
18544;SDS011;9402;51.460;7.276;2023-07-02T01:40:48;13.23;;;5.30;;
18544;SDS011;9402;51.460;7.276;2023-07-02T01:42:50;12.57;;;5.00;;
18544;SDS011;9402;51.460;7.276;2023-07-02T01:44:51;8.90;;;4.57;;
18544;SDS011;9402;51.460;7.276;2023-07-02T01:46:53;11.57;;;5.07;;
18544;SDS011;9402;51.460;7.276;2023-07-02T01:48:56;11.43;;;4.17;;
18544;SDS011;9402;51.460;7.276;2023-07-02T01:50:57;13.47;;;5.67;;
18544;SDS011;9402;51.460;7.276;2023-07-02T01:53:00;9.80;;;4.97;;
18544;SDS011;9402;51.460;7.276;2023-07-02T01:55:02;9.50;;;5.43;;
18544;SDS011;9402;51.460;7.276;2023-07-02T01:57:04;16.37;;;5.90;;
18544;SDS011;9402;51.460;7.276;2023-07-02T01:59:05;10.40;;;5.03;;
18544;SDS011;9402;51.460;7.276;2023-07-02T02:01:07;8.27;;;5.37;;
18544;SDS011;9402;51.460;7.276;2023-07-02T02:03:09;11.50;;;5.93;;
18544;SDS011;9402;51.460;7.276;2023-07-02T02:05:10;8.90;;;4.90;;
18544;SDS011;9402;51.460;7.276;2023-07-02T02:07:12;11.77;;;5.00;;
18544;SDS011;9402;51.460;7.276;2023-07-02T02:09:15;11.30;;;5.70;;
18544;SDS011;9402;51.460;7.276;2023-07-02T02:11:16;9.60;;;5.13;;
18544;SDS011;9402;51.460;7.276;2023-07-02T02:13:18;7.93;;;4.20;;
18544;SDS011;9402;51.460;7.276;2023-07-02T02:15:19;12.30;;;4.40;;
18544;SDS011;9402;51.460;7.276;2023-07-02T02:17:21;11.77;;;5.77;;
18544;SDS011;9402;51.460;7.276;2023-07-02T02:19:23;11.53;;;5.30;;
18544;SDS011;9402;51.460;7.276;2023-07-02T02:21:25;12.50;;;6.03;;
18544;SDS011;9402;51.460;7.276;2023-07-02T02:23:27;12.10;;;5.50;;
18544;SDS011;9402;51.460;7.276;2023-07-02T02:25:30;17.10;;;5.83;;
18544;SDS011;9402;51.460;7.276;2023-07-02T02:27:32;11.17;;;5.67;;
18544;SDS011;9402;51.460;7.276;2023-07-02T02:29:33;14.93;;;6.53;;
18544;SDS011;9402;51.460;7.276;2023-07-02T02:31:35;10.90;;;5.93;;
18544;SDS011;9402;51.460;7.276;2023-07-02T02:33:36;17.87;;;7.43;;
18544;SDS011;9402;51.460;7.276;2023-07-02T02:35:39;17.47;;;7.40;;
18544;SDS011;9402;51.460;7.276;2023-07-02T02:37:40;18.87;;;6.63;;
18544;SDS011;9402;51.460;7.276;2023-07-02T02:39:42;21.60;;;7.43;;
18544;SDS011;9402;51.460;7.276;2023-07-02T02:41:44;20.03;;;8.07;;
18544;SDS011;9402;51.460;7.276;2023-07-02T02:43:46;22.60;;;8.30;;
18544;SDS011;9402;51.460;7.276;2023-07-02T02:45:48;16.17;;;6.63;;
18544;SDS011;9402;51.460;7.276;2023-07-02T02:47:49;19.30;;;8.33;;
18544;SDS011;9402;51.460;7.276;2023-07-02T02:49:51;17.47;;;7.67;;
18544;SDS011;9402;51.460;7.276;2023-07-02T02:51:52;17.20;;;7.47;;
18544;SDS011;9402;51.460;7.276;2023-07-02T02:53:54;19.17;;;8.50;;
18544;SDS011;9402;51.460;7.276;2023-07-02T02:55:55;23.17;;;8.80;;
18544;SDS011;9402;51.460;7.276;2023-07-02T02:57:58;26.77;;;8.37;;
18544;SDS011;9402;51.460;7.276;2023-07-02T03:00:00;19.10;;;8.53;;
18544;SDS011;9402;51.460;7.276;2023-07-02T03:02:01;21.00;;;9.60;;
18544;SDS011;9402;51.460;7.276;2023-07-02T03:04:04;20.70;;;8.87;;
18544;SDS011;9402;51.460;7.276;2023-07-02T03:06:08;22.47;;;9.57;;
18544;SDS011;9402;51.460;7.276;2023-07-02T03:08:09;21.70;;;9.50;;
18544;SDS011;9402;51.460;7.276;2023-07-02T03:10:11;20.97;;;10.33;;
18544;SDS011;9402;51.460;7.276;2023-07-02T03:12:12;32.80;;;10.40;;
18544;SDS011;9402;51.460;7.276;2023-07-02T03:14:15;20.37;;;9.20;;
18544;SDS011;9402;51.460;7.276;2023-07-02T03:16:17;21.40;;;9.80;;
18544;SDS011;9402;51.460;7.276;2023-07-02T03:18:21;29.53;;;10.67;;
18544;SDS011;9402;51.460;7.276;2023-07-02T03:20:23;24.00;;;11.70;;
18544;SDS011;9402;51.460;7.276;2023-07-02T03:22:25;30.43;;;10.23;;
18544;SDS011;9402;51.460;7.276;2023-07-02T03:24:27;25.57;;;9.80;;
18544;SDS011;9402;51.460;7.276;2023-07-02T03:26:28;28.20;;;10.73;;
18544;SDS011;9402;51.460;7.276;2023-07-02T03:28:30;30.83;;;11.30;;
18544;SDS011;9402;51.460;7.276;2023-07-02T03:30:35;29.33;;;10.97;;
18544;SDS011;9402;51.460;7.276;2023-07-02T03:32:37;19.60;;;11.30;;
18544;SDS011;9402;51.460;7.276;2023-07-02T03:34:38;27.27;;;11.13;;
18544;SDS011;9402;51.460;7.276;2023-07-02T03:36:40;26.70;;;11.40;;
18544;SDS011;9402;51.460;7.276;2023-07-02T03:38:41;29.50;;;11.97;;
18544;SDS011;9402;51.460;7.276;2023-07-02T03:40:43;26.33;;;11.07;;
18544;SDS011;9402;51.460;7.276;2023-07-02T03:42:44;32.73;;;12.13;;
18544;SDS011;9402;51.460;7.276;2023-07-02T03:44:46;33.77;;;12.73;;
18544;SDS011;9402;51.460;7.276;2023-07-02T03:46:49;24.77;;;11.23;;
18544;SDS011;9402;51.460;7.276;2023-07-02T03:48:51;24.53;;;11.07;;
18544;SDS011;9402;51.460;7.276;2023-07-02T03:50:52;19.40;;;11.40;;
18544;SDS011;9402;51.460;7.276;2023-07-02T03:52:54;28.20;;;13.27;;
18544;SDS011;9402;51.460;7.276;2023-07-02T03:54:55;25.43;;;11.80;;
18544;SDS011;9402;51.460;7.276;2023-07-02T03:56:57;26.07;;;12.70;;
18544;SDS011;9402;51.460;7.276;2023-07-02T03:58:58;25.17;;;13.30;;
18544;SDS011;9402;51.460;7.276;2023-07-02T04:01:00;30.83;;;12.00;;
18544;SDS011;9402;51.460;7.276;2023-07-02T04:03:03;26.73;;;12.80;;
18544;SDS011;9402;51.460;7.276;2023-07-02T04:05:05;27.70;;;12.40;;
18544;SDS011;9402;51.460;7.276;2023-07-02T04:07:07;19.80;;;12.23;;
18544;SDS011;9402;51.460;7.276;2023-07-02T04:09:08;23.27;;;12.17;;
18544;SDS011;9402;51.460;7.276;2023-07-02T04:11:10;25.83;;;12.67;;
18544;SDS011;9402;51.460;7.276;2023-07-02T04:13:12;38.30;;;14.37;;
18544;SDS011;9402;51.460;7.276;2023-07-02T04:15:14;23.70;;;12.00;;
18544;SDS011;9402;51.460;7.276;2023-07-02T04:17:15;36.60;;;14.07;;
18544;SDS011;9402;51.460;7.276;2023-07-02T04:19:18;25.50;;;13.10;;
18544;SDS011;9402;51.460;7.276;2023-07-02T04:21:20;28.23;;;13.10;;
18544;SDS011;9402;51.460;7.276;2023-07-02T04:23:21;30.70;;;13.60;;
18544;SDS011;9402;51.460;7.276;2023-07-02T04:25:23;33.17;;;13.93;;
18544;SDS011;9402;51.460;7.276;2023-07-02T04:27:25;32.20;;;13.87;;
18544;SDS011;9402;51.460;7.276;2023-07-02T04:29:26;33.57;;;14.30;;
18544;SDS011;9402;51.460;7.276;2023-07-02T04:31:28;33.90;;;14.40;;
18544;SDS011;9402;51.460;7.276;2023-07-02T04:33:29;28.97;;;14.00;;
18544;SDS011;9402;51.460;7.276;2023-07-02T04:35:37;33.20;;;14.30;;
18544;SDS011;9402;51.460;7.276;2023-07-02T04:37:38;34.07;;;15.17;;
18544;SDS011;9402;51.460;7.276;2023-07-02T04:39:40;32.20;;;14.93;;
18544;SDS011;9402;51.460;7.276;2023-07-02T04:41:42;29.77;;;13.27;;
18544;SDS011;9402;51.460;7.276;2023-07-02T04:43:43;26.53;;;14.40;;
18544;SDS011;9402;51.460;7.276;2023-07-02T04:45:45;30.90;;;13.90;;
18544;SDS011;9402;51.460;7.276;2023-07-02T04:47:48;27.50;;;14.00;;
18544;SDS011;9402;51.460;7.276;2023-07-02T04:49:49;36.37;;;15.07;;
18544;SDS011;9402;51.460;7.276;2023-07-02T04:51:52;35.87;;;15.73;;
18544;SDS011;9402;51.460;7.276;2023-07-02T04:53:54;36.40;;;15.50;;
18544;SDS011;9402;51.460;7.276;2023-07-02T04:55:56;30.13;;;14.23;;
18544;SDS011;9402;51.460;7.276;2023-07-02T04:57:58;39.23;;;17.10;;
18544;SDS011;9402;51.460;7.276;2023-07-02T04:59:59;36.90;;;16.90;;
18544;SDS011;9402;51.460;7.276;2023-07-02T05:02:01;29.83;;;15.40;;
18544;SDS011;9402;51.460;7.276;2023-07-02T05:04:04;41.87;;;15.80;;
18544;SDS011;9402;51.460;7.276;2023-07-02T05:06:06;42.90;;;15.83;;
18544;SDS011;9402;51.460;7.276;2023-07-02T05:08:09;29.33;;;14.70;;
18544;SDS011;9402;51.460;7.276;2023-07-02T05:10:11;40.37;;;15.73;;
18544;SDS011;9402;51.460;7.276;2023-07-02T05:12:13;32.90;;;16.20;;
18544;SDS011;9402;51.460;7.276;2023-07-02T05:14:14;32.13;;;14.70;;
18544;SDS011;9402;51.460;7.276;2023-07-02T05:16:16;29.27;;;15.83;;
18544;SDS011;9402;51.460;7.276;2023-07-02T05:18:18;37.87;;;17.03;;
18544;SDS011;9402;51.460;7.276;2023-07-02T05:20:19;31.60;;;16.13;;
18544;SDS011;9402;51.460;7.276;2023-07-02T05:22:21;30.73;;;15.10;;
18544;SDS011;9402;51.460;7.276;2023-07-02T05:24:24;37.70;;;16.10;;
18544;SDS011;9402;51.460;7.276;2023-07-02T05:26:25;38.57;;;17.70;;
18544;SDS011;9402;51.460;7.276;2023-07-02T05:28:27;31.17;;;15.70;;
18544;SDS011;9402;51.460;7.276;2023-07-02T05:30:29;36.20;;;16.17;;
18544;SDS011;9402;51.460;7.276;2023-07-02T05:32:30;38.73;;;16.77;;
18544;SDS011;9402;51.460;7.276;2023-07-02T05:34:32;37.17;;;15.87;;
18544;SDS011;9402;51.460;7.276;2023-07-02T05:36:33;50.33;;;16.50;;
18544;SDS011;9402;51.460;7.276;2023-07-02T05:38:35;37.97;;;17.67;;
18544;SDS011;9402;51.460;7.276;2023-07-02T05:40:38;31.53;;;16.73;;
18544;SDS011;9402;51.460;7.276;2023-07-02T05:42:40;32.07;;;17.13;;
18544;SDS011;9402;51.460;7.276;2023-07-02T05:44:42;29.17;;;16.77;;
18544;SDS011;9402;51.460;7.276;2023-07-02T05:46:44;41.43;;;18.43;;
18544;SDS011;9402;51.460;7.276;2023-07-02T05:48:46;44.80;;;19.77;;
18544;SDS011;9402;51.460;7.276;2023-07-02T05:50:47;34.53;;;17.17;;
18544;SDS011;9402;51.460;7.276;2023-07-02T05:52:49;36.77;;;17.73;;
18544;SDS011;9402;51.460;7.276;2023-07-02T05:54:50;35.77;;;18.53;;
18544;SDS011;9402;51.460;7.276;2023-07-02T05:56:53;37.00;;;18.30;;
18544;SDS011;9402;51.460;7.276;2023-07-02T05:58:55;37.27;;;18.00;;
18544;SDS011;9402;51.460;7.276;2023-07-02T06:00:56;36.40;;;17.57;;
18544;SDS011;9402;51.460;7.276;2023-07-02T06:02:58;38.43;;;17.40;;
18544;SDS011;9402;51.460;7.276;2023-07-02T06:04:59;45.60;;;20.37;;
18544;SDS011;9402;51.460;7.276;2023-07-02T06:07:02;42.53;;;18.60;;
18544;SDS011;9402;51.460;7.276;2023-07-02T06:09:03;40.33;;;17.77;;
18544;SDS011;9402;51.460;7.276;2023-07-02T06:11:05;39.37;;;17.90;;
18544;SDS011;9402;51.460;7.276;2023-07-02T06:13:08;40.20;;;18.90;;
18544;SDS011;9402;51.460;7.276;2023-07-02T06:15:10;42.47;;;18.57;;
18544;SDS011;9402;51.460;7.276;2023-07-02T06:17:11;38.70;;;18.57;;
18544;SDS011;9402;51.460;7.276;2023-07-02T06:19:13;41.57;;;19.13;;
18544;SDS011;9402;51.460;7.276;2023-07-02T06:21:15;40.90;;;18.77;;
18544;SDS011;9402;51.460;7.276;2023-07-02T06:23:16;40.23;;;19.10;;
18544;SDS011;9402;51.460;7.276;2023-07-02T06:25:18;45.53;;;19.70;;
18544;SDS011;9402;51.460;7.276;2023-07-02T06:27:19;39.20;;;19.00;;
18544;SDS011;9402;51.460;7.276;2023-07-02T06:29:22;42.50;;;19.53;;
18544;SDS011;9402;51.460;7.276;2023-07-02T06:31:24;41.27;;;18.70;;
18544;SDS011;9402;51.460;7.276;2023-07-02T06:33:26;33.10;;;18.07;;
18544;SDS011;9402;51.460;7.276;2023-07-02T06:35:27;54.20;;;21.63;;
18544;SDS011;9402;51.460;7.276;2023-07-02T06:37:29;42.53;;;18.37;;
18544;SDS011;9402;51.460;7.276;2023-07-02T06:39:30;38.60;;;18.73;;
18544;SDS011;9402;51.460;7.276;2023-07-02T06:41:32;37.10;;;17.57;;
18544;SDS011;9402;51.460;7.276;2023-07-02T06:43:33;37.53;;;17.93;;
18544;SDS011;9402;51.460;7.276;2023-07-02T06:45:36;38.17;;;17.77;;
18544;SDS011;9402;51.460;7.276;2023-07-02T06:47:38;39.13;;;17.90;;
18544;SDS011;9402;51.460;7.276;2023-07-02T06:49:40;43.17;;;19.83;;
18544;SDS011;9402;51.460;7.276;2023-07-02T06:51:41;35.77;;;17.77;;
18544;SDS011;9402;51.460;7.276;2023-07-02T06:53:44;53.77;;;18.43;;
18544;SDS011;9402;51.460;7.276;2023-07-02T06:55:45;34.13;;;17.50;;
18544;SDS011;9402;51.460;7.276;2023-07-02T06:57:47;43.87;;;17.47;;
18544;SDS011;9402;51.460;7.276;2023-07-02T06:59:49;33.93;;;17.03;;
18544;SDS011;9402;51.460;7.276;2023-07-02T07:01:52;41.63;;;17.63;;
18544;SDS011;9402;51.460;7.276;2023-07-02T07:03:54;33.00;;;17.40;;
18544;SDS011;9402;51.460;7.276;2023-07-02T07:05:55;35.03;;;16.10;;
18544;SDS011;9402;51.460;7.276;2023-07-02T07:07:57;39.03;;;17.37;;
18544;SDS011;9402;51.460;7.276;2023-07-02T07:10:00;38.27;;;16.23;;
18544;SDS011;9402;51.460;7.276;2023-07-02T07:12:01;38.13;;;15.70;;
18544;SDS011;9402;51.460;7.276;2023-07-02T07:14:03;31.30;;;14.30;;
18544;SDS011;9402;51.460;7.276;2023-07-02T07:16:04;35.87;;;14.47;;
18544;SDS011;9402;51.460;7.276;2023-07-02T07:18:08;37.17;;;15.03;;
18544;SDS011;9402;51.460;7.276;2023-07-02T07:20:10;33.23;;;13.43;;
18544;SDS011;9402;51.460;7.276;2023-07-02T07:22:12;32.20;;;14.83;;
18544;SDS011;9402;51.460;7.276;2023-07-02T07:24:14;28.43;;;12.93;;
18544;SDS011;9402;51.460;7.276;2023-07-02T07:26:15;31.10;;;13.10;;
18544;SDS011;9402;51.460;7.276;2023-07-02T07:28:17;34.27;;;15.10;;
18544;SDS011;9402;51.460;7.276;2023-07-02T07:30:18;30.97;;;14.90;;
18544;SDS011;9402;51.460;7.276;2023-07-02T07:32:22;39.40;;;15.07;;
18544;SDS011;9402;51.460;7.276;2023-07-02T07:34:25;32.70;;;13.53;;
18544;SDS011;9402;51.460;7.276;2023-07-02T07:36:27;33.30;;;15.03;;
18544;SDS011;9402;51.460;7.276;2023-07-02T07:38:29;33.50;;;12.30;;
18544;SDS011;9402;51.460;7.276;2023-07-02T07:40:30;26.33;;;12.60;;
18544;SDS011;9402;51.460;7.276;2023-07-02T07:42:32;37.00;;;13.07;;
18544;SDS011;9402;51.460;7.276;2023-07-02T07:44:34;26.30;;;13.50;;
18544;SDS011;9402;51.460;7.276;2023-07-02T07:46:35;31.37;;;13.40;;
18544;SDS011;9402;51.460;7.276;2023-07-02T07:48:37;33.00;;;14.17;;
18544;SDS011;9402;51.460;7.276;2023-07-02T07:50:40;25.33;;;13.00;;
18544;SDS011;9402;51.460;7.276;2023-07-02T07:52:42;25.63;;;12.87;;
18544;SDS011;9402;51.460;7.276;2023-07-02T07:54:44;30.67;;;13.00;;
18544;SDS011;9402;51.460;7.276;2023-07-02T07:56:45;36.53;;;14.50;;
18544;SDS011;9402;51.460;7.276;2023-07-02T07:58:47;30.53;;;12.87;;
18544;SDS011;9402;51.460;7.276;2023-07-02T08:00:48;27.03;;;13.10;;
18544;SDS011;9402;51.460;7.276;2023-07-02T08:02:50;30.63;;;13.10;;
18544;SDS011;9402;51.460;7.276;2023-07-02T08:04:52;27.47;;;12.67;;
18544;SDS011;9402;51.460;7.276;2023-07-02T08:06:55;30.00;;;14.17;;
18544;SDS011;9402;51.460;7.276;2023-07-02T08:08:57;31.53;;;13.33;;
18544;SDS011;9402;51.460;7.276;2023-07-02T08:10:58;33.73;;;11.97;;
18544;SDS011;9402;51.460;7.276;2023-07-02T08:13:00;24.53;;;12.83;;
18544;SDS011;9402;51.460;7.276;2023-07-02T08:15:02;35.50;;;12.47;;
18544;SDS011;9402;51.460;7.276;2023-07-02T08:17:04;28.33;;;13.20;;
18544;SDS011;9402;51.460;7.276;2023-07-02T08:19:06;31.93;;;12.23;;
18544;SDS011;9402;51.460;7.276;2023-07-02T08:21:07;32.97;;;13.90;;
18544;SDS011;9402;51.460;7.276;2023-07-02T08:23:10;30.60;;;13.33;;
18544;SDS011;9402;51.460;7.276;2023-07-02T08:25:12;38.90;;;13.60;;
18544;SDS011;9402;51.460;7.276;2023-07-02T08:27:14;23.00;;;11.50;;
18544;SDS011;9402;51.460;7.276;2023-07-02T08:29:19;30.63;;;12.90;;
18544;SDS011;9402;51.460;7.276;2023-07-02T08:31:20;31.80;;;12.70;;
18544;SDS011;9402;51.460;7.276;2023-07-02T08:33:22;29.53;;;12.70;;
18544;SDS011;9402;51.460;7.276;2023-07-02T08:35:24;24.60;;;12.03;;
18544;SDS011;9402;51.460;7.276;2023-07-02T08:37:25;28.97;;;12.97;;
18544;SDS011;9402;51.460;7.276;2023-07-02T08:39:28;26.30;;;13.10;;
18544;SDS011;9402;51.460;7.276;2023-07-02T08:41:40;24.07;;;12.13;;
18544;SDS011;9402;51.460;7.276;2023-07-02T08:43:43;30.97;;;12.27;;
18544;SDS011;9402;51.460;7.276;2023-07-02T08:45:45;30.87;;;12.47;;
18544;SDS011;9402;51.460;7.276;2023-07-02T08:47:46;29.40;;;12.63;;
18544;SDS011;9402;51.460;7.276;2023-07-02T08:49:49;38.20;;;12.93;;
18544;SDS011;9402;51.460;7.276;2023-07-02T08:51:51;30.57;;;12.30;;
18544;SDS011;9402;51.460;7.276;2023-07-02T08:53:53;31.47;;;11.83;;
18544;SDS011;9402;51.460;7.276;2023-07-02T08:55:56;27.40;;;10.93;;
18544;SDS011;9402;51.460;7.276;2023-07-02T08:57:59;33.57;;;11.77;;
18544;SDS011;9402;51.460;7.276;2023-07-02T09:00:03;27.47;;;10.63;;
18544;SDS011;9402;51.460;7.276;2023-07-02T09:02:07;26.00;;;11.20;;
18544;SDS011;9402;51.460;7.276;2023-07-02T09:04:14;18.77;;;9.37;;
18544;SDS011;9402;51.460;7.276;2023-07-02T09:06:17;26.93;;;10.93;;
18544;SDS011;9402;51.460;7.276;2023-07-02T09:08:22;23.50;;;9.77;;
18544;SDS011;9402;51.460;7.276;2023-07-02T09:10:25;22.33;;;9.80;;
18544;SDS011;9402;51.460;7.276;2023-07-02T09:12:30;22.20;;;9.50;;
18544;SDS011;9402;51.460;7.276;2023-07-02T09:14:32;25.97;;;10.50;;
18544;SDS011;9402;51.460;7.276;2023-07-02T09:16:33;27.90;;;10.80;;
18544;SDS011;9402;51.460;7.276;2023-07-02T09:18:37;19.40;;;8.87;;
18544;SDS011;9402;51.460;7.276;2023-07-02T09:20:39;28.00;;;10.63;;
18544;SDS011;9402;51.460;7.276;2023-07-02T09:22:41;18.07;;;9.10;;
18544;SDS011;9402;51.460;7.276;2023-07-02T09:24:50;26.40;;;9.57;;
18544;SDS011;9402;51.460;7.276;2023-07-02T09:26:52;29.63;;;9.67;;
18544;SDS011;9402;51.460;7.276;2023-07-02T09:29:01;19.90;;;8.70;;
18544;SDS011;9402;51.460;7.276;2023-07-02T09:31:03;22.40;;;9.20;;
18544;SDS011;9402;51.460;7.276;2023-07-02T09:33:06;27.27;;;8.83;;
18544;SDS011;9402;51.460;7.276;2023-07-02T09:35:09;19.80;;;9.63;;
18544;SDS011;9402;51.460;7.276;2023-07-02T09:37:10;28.13;;;11.00;;
18544;SDS011;9402;51.460;7.276;2023-07-02T09:39:12;21.90;;;9.73;;
18544;SDS011;9402;51.460;7.276;2023-07-02T09:41:15;25.13;;;11.00;;
18544;SDS011;9402;51.460;7.276;2023-07-02T09:43:17;18.90;;;9.97;;
18544;SDS011;9402;51.460;7.276;2023-07-02T09:45:21;25.43;;;11.33;;
18544;SDS011;9402;51.460;7.276;2023-07-02T09:47:23;21.97;;;9.63;;
18544;SDS011;9402;51.460;7.276;2023-07-02T09:49:25;22.27;;;9.77;;
18544;SDS011;9402;51.460;7.276;2023-07-02T09:51:27;18.17;;;9.30;;
18544;SDS011;9402;51.460;7.276;2023-07-02T09:53:29;20.00;;;9.57;;
18544;SDS011;9402;51.460;7.276;2023-07-02T09:55:30;28.03;;;11.80;;
18544;SDS011;9402;51.460;7.276;2023-07-02T09:57:32;25.43;;;10.80;;
18544;SDS011;9402;51.460;7.276;2023-07-02T09:59:34;15.13;;;9.67;;
18544;SDS011;9402;51.460;7.276;2023-07-02T10:01:37;22.90;;;11.10;;
18544;SDS011;9402;51.460;7.276;2023-07-02T10:03:39;22.17;;;10.33;;
18544;SDS011;9402;51.460;7.276;2023-07-02T10:05:41;26.93;;;10.70;;
18544;SDS011;9402;51.460;7.276;2023-07-02T10:07:42;28.03;;;10.47;;
18544;SDS011;9402;51.460;7.276;2023-07-02T10:09:44;23.30;;;9.80;;
18544;SDS011;9402;51.460;7.276;2023-07-02T10:11:47;21.90;;;10.20;;
18544;SDS011;9402;51.460;7.276;2023-07-02T10:13:57;23.23;;;10.70;;
18544;SDS011;9402;51.460;7.276;2023-07-02T10:16:02;24.70;;;10.20;;
18544;SDS011;9402;51.460;7.276;2023-07-02T10:18:05;24.07;;;9.33;;
18544;SDS011;9402;51.460;7.276;2023-07-02T10:20:07;32.80;;;11.17;;
18544;SDS011;9402;51.460;7.276;2023-07-02T10:22:11;24.53;;;11.10;;
18544;SDS011;9402;51.460;7.276;2023-07-02T10:24:13;26.23;;;10.30;;
18544;SDS011;9402;51.460;7.276;2023-07-02T10:26:17;18.37;;;9.67;;
18544;SDS011;9402;51.460;7.276;2023-07-02T10:28:20;23.50;;;10.40;;
18544;SDS011;9402;51.460;7.276;2023-07-02T10:30:30;20.03;;;9.97;;
18544;SDS011;9402;51.460;7.276;2023-07-02T10:32:33;21.10;;;9.80;;
18544;SDS011;9402;51.460;7.276;2023-07-02T10:34:36;21.63;;;10.83;;
18544;SDS011;9402;51.460;7.276;2023-07-02T10:36:38;26.77;;;9.43;;
18544;SDS011;9402;51.460;7.276;2023-07-02T10:38:39;22.80;;;10.97;;
18544;SDS011;9402;51.460;7.276;2023-07-02T10:40:41;20.40;;;10.20;;
18544;SDS011;9402;51.460;7.276;2023-07-02T10:42:46;20.70;;;10.03;;
18544;SDS011;9402;51.460;7.276;2023-07-02T10:44:49;17.77;;;9.67;;
18544;SDS011;9402;51.460;7.276;2023-07-02T10:46:52;23.00;;;9.50;;
18544;SDS011;9402;51.460;7.276;2023-07-02T10:48:54;19.93;;;8.70;;
18544;SDS011;9402;51.460;7.276;2023-07-02T10:50:57;18.20;;;9.77;;
18544;SDS011;9402;51.460;7.276;2023-07-02T10:52:59;22.10;;;8.50;;
18544;SDS011;9402;51.460;7.276;2023-07-02T10:55:01;21.60;;;8.83;;
18544;SDS011;9402;51.460;7.276;2023-07-02T10:57:02;30.87;;;10.83;;
18544;SDS011;9402;51.460;7.276;2023-07-02T10:59:04;19.93;;;8.83;;
18544;SDS011;9402;51.460;7.276;2023-07-02T11:01:06;24.47;;;9.80;;
18544;SDS011;9402;51.460;7.276;2023-07-02T11:03:15;21.83;;;8.93;;
18544;SDS011;9402;51.460;7.276;2023-07-02T11:05:17;20.80;;;10.77;;
18544;SDS011;9402;51.460;7.276;2023-07-02T11:07:23;19.70;;;8.33;;
18544;SDS011;9402;51.460;7.276;2023-07-02T11:09:25;22.00;;;8.53;;
18544;SDS011;9402;51.460;7.276;2023-07-02T11:11:27;19.30;;;9.20;;
18544;SDS011;9402;51.460;7.276;2023-07-02T11:13:29;17.70;;;9.20;;
18544;SDS011;9402;51.460;7.276;2023-07-02T11:15:35;19.30;;;8.93;;
18544;SDS011;9402;51.460;7.276;2023-07-02T11:17:37;23.07;;;9.57;;
18544;SDS011;9402;51.460;7.276;2023-07-02T11:19:40;23.73;;;9.13;;
18544;SDS011;9402;51.460;7.276;2023-07-02T11:21:50;16.23;;;9.00;;
18544;SDS011;9402;51.460;7.276;2023-07-02T11:24:02;22.60;;;10.57;;
18544;SDS011;9402;51.460;7.276;2023-07-02T11:26:04;23.67;;;9.73;;
18544;SDS011;9402;51.460;7.276;2023-07-02T11:28:05;21.67;;;9.40;;
18544;SDS011;9402;51.460;7.276;2023-07-02T11:30:07;22.40;;;9.20;;
18544;SDS011;9402;51.460;7.276;2023-07-02T11:32:10;31.63;;;10.10;;
18544;SDS011;9402;51.460;7.276;2023-07-02T11:34:12;23.50;;;9.47;;
18544;SDS011;9402;51.460;7.276;2023-07-02T11:36:19;23.20;;;10.90;;
18544;SDS011;9402;51.460;7.276;2023-07-02T11:38:21;17.33;;;8.33;;
18544;SDS011;9402;51.460;7.276;2023-07-02T11:40:24;25.67;;;10.00;;
18544;SDS011;9402;51.460;7.276;2023-07-02T11:42:26;27.23;;;9.57;;
18544;SDS011;9402;51.460;7.276;2023-07-02T11:44:30;15.50;;;7.40;;
18544;SDS011;9402;51.460;7.276;2023-07-02T11:46:32;19.50;;;7.90;;
18544;SDS011;9402;51.460;7.276;2023-07-02T11:48:34;18.00;;;8.10;;
18544;SDS011;9402;51.460;7.276;2023-07-02T11:50:35;20.77;;;8.93;;
18544;SDS011;9402;51.460;7.276;2023-07-02T11:52:37;27.20;;;9.63;;
18544;SDS011;9402;51.460;7.276;2023-07-02T11:54:38;15.80;;;7.80;;
18544;SDS011;9402;51.460;7.276;2023-07-02T11:56:41;26.07;;;9.10;;
18544;SDS011;9402;51.460;7.276;2023-07-02T11:58:43;13.30;;;8.00;;
18544;SDS011;9402;51.460;7.276;2023-07-02T12:00:45;15.83;;;7.47;;
18544;SDS011;9402;51.460;7.276;2023-07-02T12:02:46;20.07;;;8.80;;
18544;SDS011;9402;51.460;7.276;2023-07-02T12:04:48;16.60;;;7.97;;
18544;SDS011;9402;51.460;7.276;2023-07-02T12:06:49;21.47;;;7.40;;
18544;SDS011;9402;51.460;7.276;2023-07-02T12:08:51;19.80;;;7.80;;
18544;SDS011;9402;51.460;7.276;2023-07-02T12:10:53;18.03;;;7.50;;
18544;SDS011;9402;51.460;7.276;2023-07-02T12:12:56;17.60;;;7.80;;